WXM80 ListenWXM80 Stop

You find our weather info also at:

UK Metoffice

WeatherCloud

Weather Underground

Northeastern Weather Network

AWEKAS

Citizen Weather Observer Program (CWOP)

HAMweather, WeatherForYou, PWS Weather


Weather Underground History page Text

Daily Summary for September 14, 2017 Units:  Metric    English   Both
« Previous Day
Next Day »
Daily Weekly Monthly Yearly Custom
  High: Low: Average:
Temperature: 30.1 °C 20.2 °C 23.6 °C
Dew Point: 23.8 °C 18.9 °C 20.8 °C
Humidity: 97 % 57 % 85 %
Wind Speed: 7.2 km/h 0 km/h 0.8 km/h
Wind Gust: 19.3 km/h - -
Wind:- - SSW
Pressure: 1011.7 hPa 1008.7 hPa -
Precipitation: 0 mm    
Historical Graphs
 
 
Tabular Data for September 14, 2017
Time Temperature Dew Point Pressure Wind Wind Speed Wind Gust Humidity Rainfall Rate (Hourly)
00:01 22.2 °C 20.1 °C 1009.7 hPa South 0.2 km/h 1.6 km/h 88 % 0 mm
00:06 22.2 °C 20.1 °C 1009.7 hPa Calm     88 % 0 mm
00:11 22.2 °C 20.1 °C 1009.7 hPa Calm   3.7 km/h 88 % 0 mm
00:16 22.2 °C 20.1 °C 1009.7 hPa South 0.3 km/h 1.9 km/h 88 % 0 mm
00:21 22.2 °C 20.1 °C 1009.7 hPa SSW 0.2 km/h 1.6 km/h 88 % 0 mm
00:26 22.1 °C 20.1 °C 1009.4 hPa SSW 0.2 km/h   88 % 0 mm
00:31 22.1 °C 20.1 °C 1009.4 hPa Calm     88 % 0 mm
00:36 22.1 °C 20 °C 1009.7 hPa Calm     88 % 0 mm
00:41 22 °C 19.9 °C 1009.4 hPa Calm   1.9 km/h 88 % 0 mm
00:46 22 °C 20.1 °C 1009.4 hPa SSW 0.3 km/h 1.9 km/h 89 % 0 mm
00:51 21.9 °C 20.1 °C 1009.4 hPa Calm   1.9 km/h 89 % 0 mm
00:57 21.9 °C 20 °C 1009.4 hPa SSW 0.5 km/h 5.6 km/h 89 % 0 mm
01:02 21.8 °C 19.9 °C 1009.4 hPa SSW 0.3 km/h 1.9 km/h 89 % 0 mm
01:07 21.8 °C 19.9 °C 1009.4 hPa SSW 0.2 km/h 1.9 km/h 89 % 0 mm
01:12 21.7 °C 20 °C 1009.4 hPa Calm   1.9 km/h 90 % 0 mm
01:17 21.7 °C 19.9 °C 1009.4 hPa SSW 0.2 km/h 1.9 km/h 90 % 0 mm
01:22 21.6 °C 19.7 °C 1009.4 hPa Calm     89 % 0 mm
01:27 21.6 °C 19.7 °C 1009 hPa Calm     89 % 0 mm
01:32 21.5 °C 19.8 °C 1009 hPa SW 0.2 km/h 1.9 km/h 90 % 0 mm
01:37 21.4 °C 19.7 °C 1009.4 hPa Calm   1.9 km/h 90 % 0 mm
01:42 21.3 °C 19.6 °C 1009 hPa Calm     90 % 0 mm
01:47 21.3 °C 19.6 °C 1009.4 hPa WSW 0.6 km/h 3.7 km/h 90 % 0 mm
01:52 21.2 °C 19.5 °C 1009.4 hPa Calm     90 % 0 mm
01:57 21.2 °C 19.4 °C 1009.4 hPa WSW 0.2 km/h 1.9 km/h 90 % 0 mm
02:02 21.1 °C 19.4 °C 1009.4 hPa WSW 0.3 km/h 1.9 km/h 90 % 0 mm
02:07 21.1 °C 19.3 °C 1009.4 hPa Calm     90 % 0 mm
02:13 21 °C 19.5 °C 1009.4 hPa Calm   1.9 km/h 91 % 0 mm
02:18 20.9 °C 19.4 °C 1009.4 hPa Calm     91 % 0 mm
02:23 20.9 °C 19.2 °C 1009.4 hPa Calm     90 % 0 mm
02:28 20.8 °C 19.1 °C 1009.4 hPa Calm     90 % 0 mm
02:33 20.8 °C 19.3 °C 1009.4 hPa Calm     91 % 0 mm
02:38 20.7 °C 19.2 °C 1009.4 hPa Calm     91 % 0 mm
02:43 20.7 °C 19.2 °C 1009.4 hPa Calm     91 % 0 mm
02:48 20.6 °C 19.1 °C 1009 hPa Calm     91 % 0 mm
02:53 20.6 °C 19.1 °C 1009 hPa Calm     91 % 0 mm
02:58 20.6 °C 19.1 °C 1009 hPa Calm     91 % 0 mm
03:03 20.5 °C 19 °C 1009 hPa Calm     91 % 0 mm
03:08 20.5 °C 19.2 °C 1009 hPa Calm     92 % 0 mm
03:13 20.4 °C 19.1 °C 1009 hPa Calm     92 % 0 mm
03:19 20.4 °C 19.1 °C 1009 hPa Calm     92 % 0 mm
03:24 20.3 °C 19 °C 1009 hPa Calm     92 % 0 mm
03:29 20.3 °C 18.9 °C 1009 hPa Calm     92 % 0 mm
03:34 20.3 °C 18.9 °C 1009 hPa Calm     92 % 0 mm
03:39 20.3 °C 18.9 °C 1009 hPa Calm   1.9 km/h 92 % 0 mm
03:44 20.3 °C 19.1 °C 1009 hPa Calm   1.9 km/h 93 % 0 mm
03:49 20.3 °C 19.1 °C 1009 hPa Calm     93 % 0 mm
03:54 20.3 °C 19.1 °C 1009 hPa Calm     93 % 0 mm
03:59 20.2 °C 19.1 °C 1009 hPa Calm     93 % 0 mm
04:04 20.2 °C 19.2 °C 1009.4 hPa Calm     94 % 0 mm
04:09 20.2 °C 19.2 °C 1009 hPa Calm   1.9 km/h 94 % 0 mm
04:14 20.3 °C 19.3 °C 1009 hPa Calm   1.9 km/h 94 % 0 mm
04:20 20.3 °C 19.3 °C 1009 hPa Calm     94 % 0 mm
04:25 20.3 °C 19.3 °C 1009 hPa Calm     94 % 0 mm
04:30 20.3 °C 19.5 °C 1009.4 hPa SW 0.2 km/h 3.7 km/h 95 % 0 mm
04:35 20.3 °C 19.5 °C 1009 hPa Calm   3.7 km/h 95 % 0 mm
04:40 20.3 °C 19.5 °C 1009.4 hPa Calm     95 % 0 mm
04:45 20.4 °C 19.6 °C 1009.4 hPa SW 0.6 km/h 1.9 km/h 95 % 0 mm
04:50 20.4 °C 19.6 °C 1009.4 hPa Calm     95 % 0 mm
04:55 20.4 °C 19.6 °C 1009 hPa Calm     95 % 0 mm
05:00 20.5 °C 19.8 °C 1009.4 hPa Calm     96 % 0 mm
05:05 20.6 °C 19.9 °C 1009.4 hPa Calm     96 % 0 mm
05:10 20.6 °C 19.9 °C 1009.4 hPa Calm     96 % 0 mm
05:15 20.7 °C 20 °C 1009.4 hPa SW 0.2 km/h 1.9 km/h 96 % 0 mm
05:20 20.7 °C 20 °C 1009.4 hPa Calm   1.9 km/h 96 % 0 mm
05:26 20.7 °C 20 °C 1009.4 hPa Calm   1.6 km/h 96 % 0 mm
05:31 20.7 °C 20 °C 1009.4 hPa SW 0.2 km/h   96 % 0 mm
05:36 20.7 °C 20.1 °C 1009.7 hPa Calm     96 % 0 mm
05:41 20.7 °C 20.1 °C 1009.7 hPa Calm     96 % 0 mm
05:46 20.7 °C 20.1 °C 1009.7 hPa Calm     96 % 0 mm
05:51 20.7 °C 20.1 °C 1009.7 hPa Calm     96 % 0 mm
05:56 20.8 °C 20.1 °C 1009.7 hPa Calm   1.6 km/h 96 % 0 mm
06:01 20.8 °C 20.1 °C 1009.7 hPa Calm     96 % 0 mm
06:06 20.8 °C 20.1 °C 1009.7 hPa Calm     96 % 0 mm
06:11 20.8 °C 20.2 °C 1009.7 hPa Calm     96 % 0 mm
06:16 20.8 °C 20.2 °C 1009.7 hPa Calm     96 % 0 mm
06:21 20.8 °C 20.2 °C 1009.7 hPa Calm     96 % 0 mm
06:26 20.8 °C 20.2 °C 1009.7 hPa Calm     96 % 0 mm
06:31 20.8 °C 20.2 °C 1009.7 hPa Calm     96 % 0 mm
06:36 20.8 °C 20.2 °C 1009.7 hPa Calm     96 % 0 mm
06:41 20.9 °C 20.2 °C 1009.7 hPa Calm     96 % 0 mm
06:46 20.9 °C 20.2 °C 1009.7 hPa Calm     96 % 0 mm
06:51 20.9 °C 20.3 °C 1010 hPa Calm     96 % 0 mm
06:56 20.9 °C 20.3 °C 1009.7 hPa Calm     96 % 0 mm
07:02 20.9 °C 20.3 °C 1009.7 hPa Calm     96 % 0 mm
07:07 20.9 °C 20.3 °C 1009.7 hPa Calm     96 % 0 mm
07:12 20.9 °C 20.3 °C 1009.7 hPa Calm     96 % 0 mm
07:17 21 °C 20.3 °C 1010 hPa Calm     96 % 0 mm
07:22 21 °C 20.3 °C 1010 hPa Calm     96 % 0 mm
07:27 21 °C 20.3 °C 1010 hPa Calm     96 % 0 mm
07:32 21 °C 20.3 °C 1010 hPa Calm     96 % 0 mm
07:37 21 °C 20.3 °C 1010 hPa Calm     96 % 0 mm
07:42 21 °C 20.3 °C 1010 hPa Calm   1.6 km/h 96 % 0 mm
07:47 21 °C 20.3 °C 1010 hPa Calm     96 % 0 mm
07:52 21.1 °C 20.4 °C 1010 hPa Calm     96 % 0 mm
07:58 21.1 °C 20.4 °C 1010 hPa SW 0.3 km/h 3.2 km/h 96 % 0 mm
08:03 21.2 °C 20.5 °C 1010 hPa Calm   1.9 km/h 96 % 0 mm
08:08 21.3 °C 20.6 °C 1010 hPa SW 1.1 km/h 3.7 km/h 96 % 0 mm
08:13 21.3 °C 20.8 °C 1010 hPa SW 1.9 km/h 3.7 km/h 97 % 0 mm
08:18 21.4 °C 20.9 °C 1010 hPa Calm     97 % 0 mm
08:23 21.4 °C 20.9 °C 1010.4 hPa SW 2.1 km/h 5.6 km/h 97 % 0 mm
08:28 21.6 °C 21.1 °C 1010.4 hPa SSE 1.6 km/h 5.6 km/h 97 % 0 mm
08:33 21.6 °C 21.1 °C 1010.4 hPa SW 4.8 km/h 7.4 km/h 97 % 0 mm
08:38 21.7 °C 21.2 °C 1010.4 hPa Calm     97 % 0 mm
08:43 21.7 °C 21.2 °C 1010.4 hPa SW 1.1 km/h 4.8 km/h 97 % 0 mm
08:48 21.8 °C 21.3 °C 1010.4 hPa Calm   1.9 km/h 97 % 0 mm
08:53 21.8 °C 21.2 °C 1010 hPa South 1.4 km/h 5.6 km/h 96 % 0 mm
08:59 21.9 °C 21.3 °C 1010 hPa West 1.1 km/h 1.9 km/h 96 % 0 mm
09:04 22.1 °C 21.4 °C 1010.4 hPa SW 4.2 km/h 7.4 km/h 96 % 0 mm
09:09 22.2 °C 21.5 °C 1010.4 hPa SW 4.7 km/h 9.3 km/h 96 % 0 mm
09:14 22.3 °C 21.4 °C 1010.4 hPa West 2.3 km/h 5.6 km/h 95 % 0 mm
09:19 22.4 °C 21.6 °C 1010.4 hPa Calm     95 % 0 mm
09:24 22.5 °C 21.5 °C 1010.4 hPa West 0.2 km/h 1.9 km/h 94 % 0 mm
09:29 22.6 °C 21.6 °C 1010.4 hPa Calm     94 % 0 mm
09:34 22.7 °C 21.7 °C 1010.7 hPa Calm     94 % 0 mm
09:39 22.8 °C 21.6 °C 1010.4 hPa Calm     93 % 0 mm
09:44 22.8 °C 21.7 °C 1010.4 hPa Calm     93 % 0 mm
09:49 22.9 °C 21.5 °C 1010.4 hPa Calm     92 % 0 mm
09:54 22.9 °C 21.6 °C 1010.7 hPa Calm     92 % 0 mm
09:59 22.9 °C 21.6 °C 1010.4 hPa Calm   1.9 km/h 92 % 0 mm
10:04 23 °C 21.6 °C 1010.4 hPa West 0.5 km/h 3.7 km/h 92 % 0 mm
10:09 23.1 °C 21.5 °C 1010.7 hPa Calm     91 % 0 mm
10:14 23.2 °C 21.4 °C 1010.7 hPa ESE 3.5 km/h 5.6 km/h 90 % 0 mm
10:20 23.2 °C 21.3 °C 1010.7 hPa ESE 1.1 km/h 3.7 km/h 89 % 0 mm
10:25 23.3 °C 21.4 °C 1010.4 hPa Calm     89 % 0 mm
10:30 23.5 °C 21.6 °C 1010.4 hPa Calm     89 % 0 mm
10:35 23.7 °C 22 °C 1010.7 hPa Calm   1.9 km/h 90 % 0 mm
10:40 23.9 °C 21.9 °C 1010.7 hPa SE 0.6 km/h 3.2 km/h 89 % 0 mm
10:45 24.1 °C 21.6 °C 1010.4 hPa WSW 2.3 km/h 6.4 km/h 86 % 0 mm
10:50 24.3 °C 21.6 °C 1010.7 hPa SW 3.9 km/h 11.1 km/h 85 % 0 mm
10:55 24.4 °C 21.8 °C 1010.7 hPa SW 0.5 km/h 1.9 km/h 85 % 0 mm
11:00 24.6 °C 21.7 °C 1010.4 hPa Calm     84 % 0 mm
11:05 24.8 °C 21.9 °C 1010.4 hPa SW 3.1 km/h 5.6 km/h 84 % 0 mm
11:10 24.9 °C 21.8 °C 1010.4 hPa West 1 km/h 3.2 km/h 83 % 0 mm
11:15 25.1 °C 21.9 °C 1010.4 hPa SE 2.3 km/h 6.4 km/h 83 % 0 mm
11:20 25.2 °C 21.7 °C 1010.4 hPa SE 1.8 km/h 3.2 km/h 81 % 0 mm
11:25 25.4 °C 22.1 °C 1010.4 hPa SE 4.2 km/h 5.6 km/h 82 % 0 mm
11:31 25.6 °C 21.9 °C 1010.4 hPa Calm   3.2 km/h 80 % 0 mm
11:36 25.8 °C 21.8 °C 1010.4 hPa SSE 3.2 km/h 8 km/h 79 % 0 mm
11:41 26 °C 22.3 °C 1010.4 hPa SSW 1.6 km/h 6.4 km/h 80 % 0 mm
11:46 26.2 °C 22.3 °C 1010.4 hPa SW 1.6 km/h 6.4 km/h 79 % 0 mm
11:51 26.4 °C 22.3 °C 1010.4 hPa SW 1.6 km/h 8 km/h 78 % 0 mm
11:56 26.6 °C 21.8 °C 1010.4 hPa SSW 3.2 km/h 8 km/h 75 % 0 mm
12:01 26.8 °C 22.4 °C 1010.4 hPa West 3.7 km/h 5.6 km/h 77 % 0 mm
12:06 26.9 °C 22.3 °C 1010.4 hPa WSW 1.6 km/h 8 km/h 76 % 0 mm
12:11 26.9 °C 22.3 °C 1010 hPa SW 1.9 km/h 3.7 km/h 76 % 0 mm
12:16 27 °C 22.2 °C 1010.4 hPa Calm   8 km/h 75 % 0 mm
12:21 27.1 °C 22.7 °C 1010.4 hPa SSE 0.2 km/h 1.6 km/h 77 % 0 mm
12:26 27.1 °C 21.8 °C 1010 hPa SSE 1.6 km/h 6.4 km/h 73 % 0 mm
12:31 27.2 °C 22.2 °C 1010 hPa SE 5.5 km/h 9.3 km/h 74 % 0 mm
12:36 27.3 °C 22.3 °C 1010 hPa SSE 3.2 km/h 8 km/h 74 % 0 mm
12:41 27.5 °C 22.4 °C 1010 hPa WSW 1.6 km/h 8 km/h 74 % 0 mm
12:46 27.6 °C 22.3 °C 1010 hPa Calm   6.4 km/h 73 % 0 mm
12:51 27.6 °C 22.3 °C 1010 hPa SSE 1.6 km/h 6.4 km/h 73 % 0 mm
12:56 27.6 °C 22.5 °C 1010 hPa SW 1.6 km/h 8 km/h 74 % 0 mm
13:01 27.6 °C 22.1 °C 1010 hPa SW 1.9 km/h 5.6 km/h 72 % 0 mm
13:06 27.6 °C 22.3 °C 1010 hPa South 1.6 km/h 6.4 km/h 73 % 0 mm
13:11 27.7 °C 22.4 °C 1009.7 hPa SW 2.3 km/h 5.6 km/h 73 % 0 mm
13:16 27.8 °C 22.3 °C 1009.7 hPa Calm   1.6 km/h 72 % 0 mm
13:21 27.9 °C 21.9 °C 1009.7 hPa Calm   4.8 km/h 70 % 0 mm
13:26 28.3 °C 22.1 °C 1009.7 hPa SSE 0.5 km/h 5.6 km/h 69 % 0 mm
13:31 28.7 °C 22.2 °C 1009.7 hPa SW 4.2 km/h 7.4 km/h 68 % 0 mm
13:36 28.9 °C 21.7 °C 1009.4 hPa SW 3.2 km/h 8 km/h 65 % 0 mm
13:41 29.1 °C 21.8 °C 1009.4 hPa WSW 1.6 km/h 8 km/h 65 % 0 mm
13:46 29.3 °C 21.3 °C 1009.4 hPa SW 3.2 km/h 8 km/h 62 % 0 mm
13:51 29.6 °C 22.1 °C 1009.4 hPa WNW 7.2 km/h 11.1 km/h 64 % 0 mm
13:56 29.8 °C 23.5 °C 1009.4 hPa North 1.6 km/h 9.7 km/h 69 % 0 mm
14:01 29.8 °C 23.8 °C 1009.4 hPa NNW 1.6 km/h 3.2 km/h 70 % 0 mm
14:06 29.9 °C 21.8 °C 1009 hPa WNW 1.6 km/h 8 km/h 62 % 0 mm
14:11 30.1 °C 23.5 °C 1009.4 hPa SE 1 km/h 3.2 km/h 68 % 0 mm
14:16 30.1 °C 23 °C 1009 hPa ENE 2.1 km/h 3.7 km/h 66 % 0 mm
14:21 30.1 °C 22.8 °C 1009 hPa Calm   9.7 km/h 65 % 0 mm
14:26 30.1 °C 20.6 °C 1009 hPa SSE 3.2 km/h 19.3 km/h 57 % 0 mm
14:31 29.9 °C 21.3 °C 1009 hPa South 0.8 km/h 5.6 km/h 60 % 0 mm
14:36 30.1 °C 22.2 °C 1009 hPa Calm   12.9 km/h 63 % 0 mm
14:41 30.1 °C 21.2 °C 1009 hPa Calm   11.3 km/h 59 % 0 mm
14:46 30 °C 20.6 °C 1009 hPa South 3.2 km/h 14.5 km/h 57 % 0 mm
14:51 29.9 °C 21 °C 1009 hPa SSW 2.1 km/h 5.6 km/h 59 % 0 mm
14:56 29.8 °C 20.3 °C 1009 hPa SE 4 km/h 11.3 km/h 57 % 0 mm
15:01 29.4 °C 20 °C 1009 hPa SSW 3.2 km/h 11.3 km/h 57 % 0 mm
15:06 29.1 °C 19.9 °C 1009 hPa South 4.2 km/h 7.4 km/h 58 % 0 mm
15:11 28.7 °C 20.2 °C 1009 hPa SSE 4.7 km/h 13 km/h 60 % 0 mm
15:16 28.4 °C 20.7 °C 1009 hPa SSE 0.8 km/h 9.3 km/h 63 % 0 mm
15:22 28.2 °C 21 °C 1009.4 hPa SE 3.4 km/h 5.6 km/h 65 % 0 mm
15:27 27.9 °C 20.8 °C 1009 hPa South 2.3 km/h 5.6 km/h 65 % 0 mm
15:32 27.5 °C 20.6 °C 1009 hPa Calm   5.6 km/h 66 % 0 mm
15:37 27.3 °C 20.9 °C 1009 hPa Calm   5.6 km/h 68 % 0 mm
15:42 27.2 °C 20.7 °C 1009 hPa Calm   1.9 km/h 68 % 0 mm
15:47 27.1 °C 21.2 °C 1009 hPa SE 0.3 km/h 1.9 km/h 70 % 0 mm
15:52 27 °C 20.8 °C 1009 hPa SW 2.4 km/h 5.6 km/h 69 % 0 mm
15:57 26.8 °C 20.7 °C 1009 hPa SSW 3.4 km/h 6.4 km/h 69 % 0 mm
16:02 26.7 °C 20.6 °C 1009 hPa West 1 km/h 7.4 km/h 69 % 0 mm
16:07 26.7 °C 20.8 °C 1009 hPa SSE 3.7 km/h 8 km/h 70 % 0 mm
16:12 26.7 °C 20.6 °C 1009 hPa SW 0.3 km/h 3.7 km/h 69 % 0 mm
16:17 26.7 °C 20.6 °C 1009 hPa SE 0.3 km/h 3.7 km/h 69 % 0 mm
16:23 26.7 °C 20.6 °C 1008.7 hPa SE 3.1 km/h 9.3 km/h 69 % 0 mm
16:28 26.6 °C 20.7 °C 1009 hPa SSE 1.6 km/h 11.1 km/h 70 % 0 mm
16:33 26.6 °C 20.9 °C 1009 hPa SSE 0.6 km/h 9.3 km/h 71 % 0 mm
16:38 26.6 °C 21.1 °C 1009 hPa SSE 5.1 km/h 16.7 km/h 72 % 0 mm
16:43 26.6 °C 21.3 °C 1009 hPa WSW 1.6 km/h 5.6 km/h 73 % 0 mm
16:48 26.5 °C 21.3 °C 1009 hPa SE 1.1 km/h 5.6 km/h 73 % 0 mm
16:53 26.4 °C 21.4 °C 1009 hPa SSE 0.2 km/h 1.9 km/h 74 % 0 mm
16:58 26.3 °C 21.6 °C 1009 hPa South 2.6 km/h 8 km/h 75 % 0 mm
17:03 26.2 °C 21.4 °C 1008.7 hPa SE 1.4 km/h 3.7 km/h 75 % 0 mm
17:08 26.2 °C 21.4 °C 1008.7 hPa SE 1.4 km/h 5.6 km/h 75 % 0 mm
17:13 26.1 °C 21.5 °C 1008.7 hPa SSW 3.9 km/h 11.1 km/h 76 % 0 mm
17:18 25.9 °C 21.3 °C 1009 hPa SSW 1.6 km/h 5.6 km/h 76 % 0 mm
17:23 25.8 °C 21.4 °C 1009 hPa SE 1.1 km/h 3.7 km/h 77 % 0 mm
17:28 25.7 °C 21.6 °C 1009 hPa Calm   5.6 km/h 78 % 0 mm
17:34 25.6 °C 21.4 °C 1009 hPa SSW 2.6 km/h 3.7 km/h 78 % 0 mm
17:39 25.4 °C 21.3 °C 1009 hPa Calm   3.7 km/h 78 % 0 mm
17:44 25.3 °C 21.2 °C 1009 hPa SSE 1.6 km/h 5.6 km/h 78 % 0 mm
17:49 25.2 °C 21.1 °C 1009 hPa South 1.3 km/h 5.6 km/h 78 % 0 mm
17:54 25.1 °C 21 °C 1009 hPa Calm   1.9 km/h 78 % 0 mm
17:59 25.1 °C 21.2 °C 1009 hPa SSE 0.8 km/h 5.6 km/h 79 % 0 mm
18:04 24.9 °C 21.1 °C 1009 hPa SSE 0.6 km/h 5.6 km/h 79 % 0 mm
18:09 24.8 °C 21.2 °C 1009.4 hPa South 0.5 km/h 3.7 km/h 80 % 0 mm
18:14 24.8 °C 21.1 °C 1009.4 hPa SE 0.5 km/h 5.6 km/h 80 % 0 mm
18:19 24.7 °C 21.2 °C 1009 hPa SE 0.3 km/h 1.9 km/h 81 % 0 mm
18:24 24.7 °C 21.2 °C 1009.4 hPa Calm   1.9 km/h 81 % 0 mm
18:29 24.6 °C 21.3 °C 1009.4 hPa SSW 0.8 km/h 1.9 km/h 82 % 0 mm
18:35 24.5 °C 21.2 °C 1009.4 hPa SSW 1.3 km/h 3.7 km/h 82 % 0 mm
18:40 24.4 °C 21.2 °C 1009.7 hPa SE 1 km/h 5.6 km/h 82 % 0 mm
18:45 24.4 °C 21.1 °C 1009.7 hPa Calm   5.6 km/h 82 % 0 mm
18:50 24.3 °C 21.2 °C 1009.7 hPa SSE 0.2 km/h 1.9 km/h 83 % 0 mm
18:55 24.2 °C 21.2 °C 1009.7 hPa SSE 0.3 km/h 3.7 km/h 83 % 0 mm
19:00 24.2 °C 21.1 °C 1009.7 hPa SW 1.6 km/h 8 km/h 83 % 0 mm
19:05 24.1 °C 21.2 °C 1009.7 hPa SSW 1.1 km/h 3.7 km/h 84 % 0 mm
19:10 24.1 °C 21.2 °C 1009.7 hPa South 0.8 km/h 3.7 km/h 84 % 0 mm
19:15 24 °C 21.1 °C 1009.7 hPa Calm     84 % 0 mm
19:25 23.9 °C 21 °C 1009.7 hPa WSW 0.3 km/h 1.9 km/h 84 % 0 mm
19:30 23.8 °C 20.9 °C 1009.7 hPa Calm   1.9 km/h 84 % 0 mm
19:35 23.8 °C 20.9 °C 1010 hPa Calm   1.9 km/h 84 % 0 mm
19:40 23.7 °C 20.7 °C 1010 hPa SSW 0.6 km/h 3.7 km/h 83 % 0 mm
19:46 23.7 °C 20.6 °C 1010 hPa Calm   3.2 km/h 83 % 0 mm
19:51 23.7 °C 20.6 °C 1010.4 hPa Calm   1.6 km/h 83 % 0 mm
19:56 23.6 °C 20.7 °C 1010.4 hPa Calm   1.6 km/h 84 % 0 mm
20:01 23.6 °C 20.7 °C 1010.4 hPa Calm   1.9 km/h 84 % 0 mm
20:06 23.6 °C 20.9 °C 1010.4 hPa SW 0.2 km/h 3.7 km/h 85 % 0 mm
20:11 23.5 °C 20.8 °C 1010.7 hPa South 0.8 km/h 3.7 km/h 85 % 0 mm
20:16 23.5 °C 21 °C 1010.7 hPa SSW 0.6 km/h 3.7 km/h 86 % 0 mm
20:21 23.4 °C 20.9 °C 1010.7 hPa Calm     86 % 0 mm
20:26 23.4 °C 21.2 °C 1010.7 hPa SW 0.3 km/h   87 % 0 mm
20:31 23.4 °C 21.1 °C 1010.7 hPa West 0.5 km/h 3.2 km/h 87 % 0 mm
20:36 23.4 °C 21.1 °C 1011.1 hPa Calm     87 % 0 mm
20:41 23.3 °C 21.1 °C 1011.1 hPa Calm     87 % 0 mm
20:46 23.3 °C 21.1 °C 1010.7 hPa Calm   1.9 km/h 87 % 0 mm
20:51 23.3 °C 21 °C 1011.1 hPa SSW 0.2 km/h 1.9 km/h 87 % 0 mm
20:57 23.3 °C 21 °C 1010.7 hPa Calm   3.7 km/h 87 % 0 mm
21:02 23.2 °C 21.1 °C 1010.7 hPa Calm     88 % 0 mm
21:07 23.2 °C 21.1 °C 1010.7 hPa SE 0.2 km/h 3.7 km/h 88 % 0 mm
21:12 23.2 °C 21.1 °C 1010.7 hPa SW 0.3 km/h 1.9 km/h 88 % 0 mm
21:17 23.1 °C 21 °C 1010.7 hPa SE 0.2 km/h 1.9 km/h 88 % 0 mm
21:22 23.1 °C 21 °C 1010.7 hPa SE 0.2 km/h 1.9 km/h 88 % 0 mm
21:27 23.1 °C 20.9 °C 1010.7 hPa SSE 0.3 km/h 1.9 km/h 88 % 0 mm
21:32 23 °C 20.9 °C 1011.1 hPa SE 0.2 km/h 1.9 km/h 88 % 0 mm
21:37 23 °C 20.9 °C 1010.7 hPa SE 0.2 km/h 1.9 km/h 88 % 0 mm
21:42 22.9 °C 20.8 °C 1011.1 hPa SSE 0.5 km/h 1.9 km/h 88 % 0 mm
21:47 22.9 °C 21.1 °C 1011.1 hPa SSE 0.2 km/h 1.9 km/h 89 % 0 mm
21:52 22.9 °C 21 °C 1011.1 hPa SSE 0.3 km/h 1.9 km/h 89 % 0 mm
21:57 22.9 °C 21 °C 1011.1 hPa SSE 0.6 km/h 1.9 km/h 89 % 0 mm
22:03 22.9 °C 21 °C 1011.1 hPa Calm   1.6 km/h 89 % 0 mm
22:08 22.8 °C 20.9 °C 1011.1 hPa South 0.8 km/h 1.9 km/h 89 % 0 mm
22:13 22.8 °C 20.9 °C 1011.1 hPa Calm   1.9 km/h 89 % 0 mm
22:18 22.8 °C 20.9 °C 1011.1 hPa SSE 0.3 km/h 1.9 km/h 89 % 0 mm
22:23 22.8 °C 20.9 °C 1011.1 hPa SSE 0.2 km/h 1.9 km/h 89 % 0 mm
22:28 22.8 °C 20.9 °C 1011.4 hPa Calm   1.9 km/h 89 % 0 mm
22:33 22.8 °C 20.9 °C 1011.1 hPa WSW 0.2 km/h 1.9 km/h 89 % 0 mm
22:38 22.8 °C 20.9 °C 1011.4 hPa Calm   1.9 km/h 89 % 0 mm
22:43 22.8 °C 20.9 °C 1011.4 hPa WSW 0.3 km/h 1.6 km/h 89 % 0 mm
22:48 22.8 °C 20.9 °C 1011.4 hPa Calm   1.9 km/h 89 % 0 mm
22:53 22.8 °C 20.9 °C 1011.4 hPa WSW 0.2 km/h 1.9 km/h 89 % 0 mm
22:58 22.7 °C 20.8 °C 1011.4 hPa Calm   1.9 km/h 89 % 0 mm
23:04 22.7 °C 20.8 °C 1011.4 hPa Calm   1.9 km/h 89 % 0 mm
23:09 22.7 °C 20.8 °C 1011.4 hPa SW 0.8 km/h 3.7 km/h 89 % 0 mm
23:15 22.7 °C 20.8 °C 1011.4 hPa SW 0.3 km/h 3.7 km/h 89 % 0 mm
23:20 22.7 °C 20.8 °C 1011.7 hPa SW 0.6 km/h 3.7 km/h 89 % 0 mm
23:22 22.7 °C 20.8 °C 1011.4 hPa Calm   3.7 km/h 89 % 0 mm
23:23 22.7 °C 20.8 °C 1011.4 hPa SW 0.8 km/h 4.8 km/h 89 % 0 mm
23:24 22.7 °C 20.8 °C 1011.4 hPa SW 1.6 km/h 3.7 km/h 89 % 0 mm
23:27 22.7 °C 20.8 °C 1011.4 hPa SSW 0.5 km/h 1.9 km/h 89 % 0 mm
23:31 22.6 °C 20.7 °C 1011.4 hPa SSW 0.6 km/h 1.9 km/h 89 % 0 mm
23:36 22.6 °C 20.7 °C 1011.4 hPa SSW 0.8 km/h   89 % 0 mm
23:41 22.6 °C 20.7 °C 1011.7 hPa Calm   1.9 km/h 89 % 0 mm
23:47 22.6 °C 20.7 °C 1011.7 hPa SSW 0.8 km/h 3.7 km/h 89 % 0 mm
23:52 22.5 °C 20.4 °C 1011.7 hPa WSW 0.6 km/h 3.7 km/h 88 % 0 mm
23:57 22.4 °C 20.6 °C 1011.7 hPa WSW 0.5 km/h 4.8 km/h 89 % 0 mm
Crab Meadow Weather
Compliments of Weather Underground - 3 mb

Script developed by  Jim McMurry - jmcmurry@mwt.net Adapted for the template by  Wim van der Kuil - Leuven-Template.eu

Pollen: Each year American vegetation spews forth some 1,000,000 tons of pollen into the air we breathe.